Time;durP1;ratioP1;P1;durP2;ratioP2;P2;SDS_P1;SDS_P2;PMS_P1;PMS_P2;Temp;Humidity;BMP_temperature;BMP_pressure;BME280_temperature;BME280_humidity;BME280_pressure;Samples;Min_cycle;Max_cycle;Signal;HPM_P1;HPM_P2
2022/10/11 00:00:00;;;;;;;25.80;13.13;;;;;;;8.52;76.40;102319.25;4990532;28;20184;-57
2022/10/11 00:02:25;;;;;;;24.77;11.88;;;;;;;8.55;76.04;102322.66;4974159;28;20397;-57
2022/10/11 00:04:53;;;;;;;20.15;11.65;;;;;;;8.56;75.70;102326.19;4991068;28;20069;-57
2022/10/11 00:07:19;;;;;;;23.13;11.65;;;;;;;8.55;75.66;102330.63;4992685;28;20553;-57
2022/10/11 00:09:45;;;;;;;23.00;10.95;;;;;;;8.53;75.38;102328.94;4991706;28;20105;-57
2022/10/11 00:12:13;;;;;;;22.23;11.40;;;;;;;8.49;75.03;102333.47;4990639;28;20160;-56
2022/10/11 00:14:38;;;;;;;20.85;11.70;;;;;;;8.38;75.32;102330.22;5004848;28;20026;-56
2022/10/11 00:17:06;;;;;;;22.20;10.90;;;;;;;8.33;75.08;102325.09;4970017;28;20516;-56
2022/10/11 00:19:32;;;;;;;19.20;11.05;;;;;;;8.36;74.87;102332.94;4972172;28;20027;-56
2022/10/11 00:21:57;;;;;;;17.08;10.05;;;;;;;8.33;74.78;102332.16;4955674;28;20033;-57
2022/10/11 00:24:23;;;;;;;20.15;10.82;;;;;;;8.32;75.09;102333.94;4988956;28;20065;-56
2022/10/11 00:26:49;;;;;;;18.58;10.65;;;;;;;8.30;74.85;102334.91;4991246;28;20385;-57
2022/10/11 00:29:15;;;;;;;19.48;10.88;;;;;;;8.27;74.69;102330.56;4990276;28;20026;-57
2022/10/11 00:31:42;;;;;;;18.83;10.23;;;;;;;8.18;74.65;102337.00;5002045;28;20039;-57
2022/10/11 00:34:10;;;;;;;18.95;10.63;;;;;;;8.12;75.12;102338.97;4978567;28;20034;-57
2022/10/11 00:36:36;;;;;;;24.35;11.43;;;;;;;8.09;74.93;102336.38;4973453;28;20065;-56
2022/10/11 00:39:02;;;;;;;15.00;10.48;;;;;;;8.08;74.97;102339.94;4990734;28;20058;-57
2022/10/11 00:41:28;;;;;;;20.98;10.32;;;;;;;8.05;74.96;102348.00;4989936;28;20044;-57
2022/10/11 00:44:26;;;;;;;18.50;10.13;;;;;;;8.07;75.21;102352.34;4988246;28;20478;-57
2022/10/11 00:46:56;;;;;;;19.20;10.52;;;;;;;7.94;75.08;102349.19;4935030;28;20038;-56
2022/10/11 00:49:43;;;;;;;19.38;11.07;;;;;;;7.97;75.16;102357.03;4987627;28;20037;-56
2022/10/11 00:52:30;;;;;;;16.38;9.55;;;;;;;7.97;74.93;102353.50;4990161;28;20022;-56
2022/10/11 00:55:01;;;;;;;18.33;10.13;;;;;;;7.95;74.70;102366.78;4988566;28;20114;-57
2022/10/11 00:57:30;;;;;;;16.80;9.55;;;;;;;7.79;74.75;102357.53;4989574;28;20034;-57
2022/10/11 00:59:58;;;;;;;19.05;10.48;;;;;;;7.80;74.90;102359.28;4989851;28;20513;-56
2022/10/11 01:02:25;;;;;;;20.60;9.77;;;;;;;7.79;75.17;102360.16;4988187;28;20057;-56
2022/10/11 01:04:50;;;;;;;16.40;9.95;;;;;;;7.84;74.56;102363.56;4989808;28;20034;-56
2022/10/11 01:07:18;;;;;;;17.50;9.75;;;;;;;7.76;75.13;102362.91;4989678;28;20473;-56
2022/10/11 01:09:44;;;;;;;16.42;9.48;;;;;;;7.72;75.23;102363.91;4990105;28;20110;-56
2022/10/11 01:12:21;;;;;;;24.77;9.27;;;;;;;7.71;75.36;102372.78;4989576;28;20157;-56
2022/10/11 01:15:24;;;;;;;15.38;8.43;;;;;;;7.80;75.25;102369.00;4988644;28;20022;-57
2022/10/11 01:18:09;;;;;;;14.23;8.80;;;;;;;7.82;74.91;102362.72;4989742;28;20032;-57
2022/10/11 01:20:53;;;;;;;17.35;8.63;;;;;;;7.76;74.81;102375.28;4985769;28;20047;-56
2022/10/11 01:23:40;;;;;;;17.73;9.13;;;;;;;7.75;74.57;102361.16;4981377;28;20065;-57
2022/10/11 01:26:22;;;;;;;17.67;8.88;;;;;;;7.67;74.64;102369.31;4990410;28;20076;-56
2022/10/11 01:29:28;;;;;;;13.20;7.93;;;;;;;7.65;75.07;102367.63;4988484;28;20033;-56
2022/10/11 01:32:08;;;;;;;16.00;8.60;;;;;;;7.58;74.76;102371.34;4990613;28;20611;-56
2022/10/11 01:35:05;;;;;;;16.30;8.38;;;;;;;7.65;74.56;102372.94;4999499;28;20038;-57
2022/10/11 01:37:40;;;;;;;13.98;7.35;;;;;;;7.57;74.90;102370.47;4989144;28;20117;-57
2022/10/11 01:40:14;;;;;;;14.70;8.00;;;;;;;7.52;75.02;102377.66;4989246;28;20034;-56
2022/10/11 01:42:41;;;;;;;14.75;8.25;;;;;;;7.32;74.95;102364.06;4989188;28;20026;-56
2022/10/11 01:45:14;;;;;;;13.70;8.10;;;;;;;7.37;75.70;102373.63;4988245;28;20121;-57
2022/10/11 01:47:44;;;;;;;16.80;8.23;;;;;;;7.34;75.22;102372.84;4987337;28;20029;-56
2022/10/11 01:50:39;;;;;;;15.35;7.30;;;;;;;7.41;75.39;102375.31;4972656;28;20109;-56
2022/10/11 01:53:37;;;;;;;13.30;7.70;;;;;;;7.42;75.06;102377.03;4988813;28;20034;-56
2022/10/11 01:56:18;;;;;;;16.27;7.53;;;;;;;7.39;75.12;102379.75;4999423;28;20107;-56
2022/10/11 01:59:13;;;;;;;14.20;7.85;;;;;;;7.40;74.86;102372.69;4987764;28;20238;-56
2022/10/11 02:02:16;;;;;;;13.18;8.30;;;;;;;7.35;75.38;102380.72;4987905;28;20045;-56
2022/10/11 02:05:15;;;;;;;19.00;8.10;;;;;;;7.34;75.13;102379.00;4981567;28;20390;-56
2022/10/11 02:07:55;;;;;;;16.07;7.37;;;;;;;7.19;75.05;102382.03;4972334;28;20033;-56
2022/10/11 02:10:38;;;;;;;9.93;6.65;;;;;;;7.24;75.58;102394.25;4986454;28;20784;-57
2022/10/11 02:13:07;;;;;;;11.27;7.13;;;;;;;7.14;75.19;102392.69;4987947;28;20034;-57
2022/10/11 02:15:35;;;;;;;12.23;7.15;;;;;;;7.15;75.42;102390.97;4988192;28;20026;-57
2022/10/11 02:18:06;;;;;;;14.55;7.20;;;;;;;7.13;74.87;102390.97;4988775;28;20035;-57
2022/10/11 02:20:33;;;;;;;13.95;7.30;;;;;;;7.05;75.33;102385.00;4987099;28;20133;-56
2022/10/11 02:23:06;;;;;;;13.43;7.40;;;;;;;7.08;75.21;102398.16;4977115;28;20039;-57
2022/10/11 02:25:35;;;;;;;13.90;7.85;;;;;;;7.07;74.95;102399.06;4970277;28;20031;-57
2022/10/11 02:28:06;;;;;;;8.88;6.63;;;;;;;7.03;74.70;102398.28;4976868;28;20049;-56
2022/10/11 02:30:33;;;;;;;10.73;6.68;;;;;;;7.01;74.69;102396.56;4987182;28;20034;-57
2022/10/11 02:33:03;;;;;;;12.02;7.00;;;;;;;6.92;75.18;102392.34;4988957;28;20126;-57
2022/10/11 02:35:35;;;;;;;9.93;7.25;;;;;;;6.93;74.98;102395.84;4970574;28;20727;-57
2022/10/11 02:38:23;;;;;;;13.45;7.35;;;;;;;6.96;75.24;102396.66;4971473;28;20030;-57
2022/10/11 02:40:57;;;;;;;14.30;7.28;;;;;;;6.84;75.46;102394.28;4988520;28;20050;-57
2022/10/11 02:43:31;;;;;;;10.65;7.00;;;;;;;6.86;75.29;102396.91;4987521;28;20030;-56
2022/10/11 02:46:00;;;;;;;13.32;6.93;;;;;;;6.87;75.35;102396.88;4988399;28;20041;-56
2022/10/11 02:48:28;;;;;;;11.88;6.97;;;;;;;6.83;75.64;102397.84;4987805;28;20030;-56
2022/10/11 02:50:56;;;;;;;13.73;7.97;;;;;;;6.81;75.46;102397.88;4987954;28;20026;-57
2022/10/11 02:53:24;;;;;;;14.27;7.57;;;;;;;6.81;75.17;102389.06;4988296;28;20097;-56
2022/10/11 02:55:51;;;;;;;10.98;6.88;;;;;;;6.79;75.26;102393.53;4988133;28;20085;-56
2022/10/11 02:58:16;;;;;;;13.50;6.88;;;;;;;6.82;75.06;102391.69;4988745;28;20038;-56
2022/10/11 03:00:42;;;;;;;11.48;7.28;;;;;;;6.71;75.48;102400.78;4988244;28;20117;-57
2022/10/11 03:03:07;;;;;;;13.13;7.28;;;;;;;6.68;76.11;102403.50;4988907;28;20111;-56
2022/10/11 03:05:39;;;;;;;10.80;7.13;;;;;;;6.70;76.05;102405.16;4986829;28;20034;-56
2022/10/11 03:08:08;;;;;;;12.52;7.03;;;;;;;6.64;75.74;102400.00;4986872;28;20450;-57
2022/10/11 03:10:34;;;;;;;14.23;7.35;;;;;;;6.64;75.63;102404.44;4988333;28;20039;-56
2022/10/11 03:13:03;;;;;;;13.95;7.30;;;;;;;6.62;75.30;102406.22;4987269;28;20365;-56
2022/10/11 03:15:28;;;;;;;14.35;7.05;;;;;;;6.47;75.70;102408.31;4971351;28;20035;-56
2022/10/11 03:17:55;;;;;;;12.05;7.15;;;;;;;6.53;75.22;102417.88;4988199;28;20038;-57
2022/10/11 03:20:22;;;;;;;12.52;7.47;;;;;;;6.48;75.86;102419.75;4970125;28;20516;-57
2022/10/11 03:22:51;;;;;;;8.95;6.82;;;;;;;6.51;75.75;102411.78;4979981;28;20058;-57
2022/10/11 03:25:19;;;;;;;16.77;7.55;;;;;;;6.47;75.79;102408.31;4988094;28;20042;-57
2022/10/11 03:27:44;;;;;;;11.27;7.13;;;;;;;6.44;76.19;102411.03;4951253;28;20035;-57
2022/10/11 03:30:12;;;;;;;12.95;7.85;;;;;;;6.45;75.91;102418.06;4977324;28;20163;-57
2022/10/11 03:32:37;;;;;;;12.02;7.10;;;;;;;6.43;76.04;102419.84;4973796;28;20038;-56
2022/10/11 03:35:06;;;;;;;15.52;6.82;;;;;;;6.39;75.89;102412.91;4973372;28;20039;-56
2022/10/11 03:37:32;;;;;;;11.32;7.40;;;;;;;6.37;76.00;102415.56;4990008;28;20674;-56
2022/10/11 03:39:57;;;;;;;12.57;6.88;;;;;;;6.40;75.87;102421.69;4974799;28;20019;-56
2022/10/11 03:42:22;;;;;;;11.05;7.10;;;;;;;6.38;76.01;102416.41;4991069;28;20489;-56
2022/10/11 03:44:50;;;;;;;13.80;6.82;;;;;;;6.39;76.06;102422.59;4974230;28;20022;-57
2022/10/11 03:47:16;;;;;;;12.15;7.20;;;;;;;6.32;75.79;102424.47;4974025;28;20031;-57
2022/10/11 03:49:44;;;;;;;11.05;7.00;;;;;;;6.28;76.02;102425.44;4990799;28;20026;-57
2022/10/11 03:52:10;;;;;;;12.63;7.03;;;;;;;6.27;75.93;102426.34;4990833;28;20465;-57
2022/10/11 03:54:38;;;;;;;12.10;6.85;;;;;;;6.23;75.89;102428.16;4972982;28;20033;-57
2022/10/11 03:57:03;;;;;;;13.43;7.43;;;;;;;6.14;76.13;102423.91;4973346;28;20121;-57
2022/10/11 03:59:29;;;;;;;11.55;7.68;;;;;;;6.19;76.11;102436.19;4985477;28;20110;-57
2022/10/11 04:01:55;;;;;;;17.58;7.15;;;;;;;6.16;76.66;102436.25;4976505;28;20037;-57
2022/10/11 04:04:21;;;;;;;13.05;7.30;;;;;;;6.16;76.33;102434.47;4989842;28;20113;-57
2022/10/11 04:06:46;;;;;;;10.90;6.57;;;;;;;6.17;75.97;102435.34;4991774;28;20049;-56
2022/10/11 04:09:11;;;;;;;11.40;7.95;;;;;;;6.04;76.21;102432.94;4990370;28;21936;-57
2022/10/11 04:11:37;;;;;;;10.85;7.78;;;;;;;6.05;76.17;102439.94;4991644;28;20113;-57
2022/10/11 04:14:03;;;;;;;13.32;7.72;;;;;;;6.03;76.60;102431.22;4990533;28;20033;-57
2022/10/11 04:16:28;;;;;;;11.98;6.97;;;;;;;5.97;77.28;102433.97;4991205;28;20030;-57
2022/10/11 04:18:54;;;;;;;9.20;7.13;;;;;;;6.01;76.28;102433.00;4989792;28;20038;-56
2022/10/11 04:21:19;;;;;;;10.65;6.70;;;;;;;6.06;76.74;102435.53;4991493;28;20496;-57
2022/10/11 04:23:44;;;;;;;12.43;7.38;;;;;;;6.05;76.48;102442.59;4972556;28;20030;-57
2022/10/11 04:26:12;;;;;;;12.15;7.22;;;;;;;6.07;76.75;102443.44;4991250;28;20030;-56
2022/10/11 04:28:38;;;;;;;9.63;6.70;;;;;;;6.04;76.58;102446.13;4989318;28;20034;-57
2022/10/11 04:31:05;;;;;;;12.65;7.90;;;;;;;6.02;76.65;102447.94;4974234;28;20022;-56
2022/10/11 04:33:30;;;;;;;13.40;7.50;;;;;;;6.01;76.87;102456.75;4965332;28;20015;-56
2022/10/11 04:35:56;;;;;;;9.98;7.72;;;;;;;5.89;76.79;102447.25;4972795;28;20030;-56
2022/10/11 04:38:24;;;;;;;11.95;7.07;;;;;;;5.96;76.75;102461.25;4990321;28;20114;-57
2022/10/11 04:40:50;;;;;;;10.15;6.95;;;;;;;5.95;77.20;102456.00;4991130;28;20026;-56
2022/10/11 04:43:17;;;;;;;12.57;6.95;;;;;;;5.90;77.18;102453.41;4988377;28;20551;-56
2022/10/11 04:45:45;;;;;;;13.73;7.13;;;;;;;5.92;77.57;102464.81;4989112;28;20030;-56
2022/10/11 04:48:12;;;;;;;10.77;7.10;;;;;;;5.98;76.82;102464.75;4972508;28;20030;-57
2022/10/11 04:50:38;;;;;;;11.88;7.57;;;;;;;5.90;77.15;102458.69;4973252;28;20376;-56
2022/10/11 04:53:04;;;;;;;15.18;7.18;;;;;;;5.91;76.96;102465.69;4956317;28;20037;-56
2022/10/11 04:55:29;;;;;;;12.40;7.55;;;;;;;5.83;77.04;102468.50;4972388;28;20030;-57
2022/10/11 04:57:54;;;;;;;12.63;7.10;;;;;;;5.82;77.58;102463.22;4990386;28;20477;-56
2022/10/11 05:00:20;;;;;;;11.02;7.43;;;;;;;5.83;77.14;102463.22;4973971;28;20113;-57
2022/10/11 05:02:46;;;;;;;12.35;7.78;;;;;;;5.82;77.05;102466.72;4973127;28;20134;-56
2022/10/11 05:05:16;;;;;;;11.18;7.28;;;;;;;5.77;77.44;102471.25;4989665;28;20066;-57
2022/10/11 05:07:41;;;;;;;10.88;7.50;;;;;;;5.73;77.24;102474.81;4988740;28;20022;-56
2022/10/11 05:10:09;;;;;;;13.52;7.25;;;;;;;5.79;77.48;102471.19;4990838;28;20030;-56
2022/10/11 05:12:35;;;;;;;15.45;7.88;;;;;;;5.74;77.15;102465.16;4989818;28;20393;-56
2022/10/11 05:15:01;;;;;;;9.80;7.50;;;;;;;5.68;77.76;102471.41;4990630;28;20033;-56
2022/10/11 05:17:27;;;;;;;12.43;7.63;;;;;;;5.62;77.76;102476.78;4992289;28;20031;-57
2022/10/11 05:19:53;;;;;;;10.40;7.22;;;;;;;5.69;77.91;102481.03;4990295;28;20050;-56
2022/10/11 05:22:18;;;;;;;12.32;8.02;;;;;;;5.66;77.21;102481.97;4990713;28;20366;-56
2022/10/11 05:24:44;;;;;;;11.68;7.70;;;;;;;5.63;78.07;102476.72;4990423;28;20030;-57
2022/10/11 05:27:09;;;;;;;12.57;7.75;;;;;;;5.59;77.44;102485.63;4989686;28;20527;-56
2022/10/11 05:29:35;;;;;;;12.57;7.57;;;;;;;5.59;77.92;102482.97;4972967;28;20035;-56
2022/10/11 05:32:01;;;;;;;12.80;7.57;;;;;;;5.66;77.46;102481.09;4990228;28;20038;-57
2022/10/11 05:34:26;;;;;;;12.55;7.57;;;;;;;5.61;77.87;102475.88;4974155;28;20023;-57
2022/10/11 05:36:52;;;;;;;9.52;7.57;;;;;;;5.60;77.05;102491.75;4990589;28;20481;-56
2022/10/11 05:39:19;;;;;;;11.23;7.32;;;;;;;5.53;78.03;102485.72;4969902;28;20485;-56
2022/10/11 05:41:45;;;;;;;13.60;8.65;;;;;;;5.53;78.07;102484.81;4983675;28;20115;-57
2022/10/11 05:44:11;;;;;;;10.82;7.22;;;;;;;5.54;76.99;102489.22;4976564;28;20077;-56
2022/10/11 05:46:37;;;;;;;9.35;7.25;;;;;;;5.51;77.88;102499.81;4983216;28;20031;-56
2022/10/11 05:49:02;;;;;;;13.00;7.88;;;;;;;5.46;77.81;102499.88;4988606;28;20504;-57
2022/10/11 05:51:28;;;;;;;13.52;8.35;;;;;;;5.47;78.45;102494.59;4971492;28;20452;-56
2022/10/11 05:53:53;;;;;;;11.20;7.25;;;;;;;5.46;78.19;102492.81;4987815;28;20018;-56
2022/10/11 05:56:21;;;;;;;14.98;7.75;;;;;;;5.46;77.94;102502.50;4971400;28;20034;-57
2022/10/11 05:58:47;;;;;;;12.15;8.52;;;;;;;5.40;77.64;102487.66;4988607;28;20056;-57
2022/10/11 06:01:24;;;;;;;12.25;7.78;;;;;;;5.48;78.12;102508.66;4971160;28;20022;-56
2022/10/11 06:03:50;;;;;;;15.13;7.93;;;;;;;5.45;78.71;102499.00;4987302;28;20521;-57
2022/10/11 06:06:16;;;;;;;13.85;8.50;;;;;;;5.52;77.86;102512.09;4974669;28;20125;-57
2022/10/11 06:08:42;;;;;;;13.55;8.00;;;;;;;5.53;78.13;102513.84;4969706;28;20118;-56
2022/10/11 06:11:20;;;;;;;12.75;8.07;;;;;;;5.49;78.02;102513.03;4986093;28;20034;-57
2022/10/11 06:13:45;;;;;;;14.25;7.57;;;;;;;5.48;77.80;102524.47;4970391;28;20489;-57
2022/10/11 06:16:12;;;;;;;11.45;8.00;;;;;;;5.33;78.52;102514.16;4987979;28;20107;-57
2022/10/11 06:18:37;;;;;;;12.80;8.27;;;;;;;5.37;78.89;102522.00;4970683;28;20390;-57
2022/10/11 06:21:03;;;;;;;16.35;7.68;;;;;;;5.44;78.88;102525.41;4989294;28;20054;-56
2022/10/11 06:23:29;;;;;;;15.88;8.70;;;;;;;5.45;78.82;102532.44;4978903;28;20518;-57
2022/10/11 06:25:59;;;;;;;12.05;8.82;;;;;;;5.48;79.66;102537.69;4989449;28;20030;-56
2022/10/11 06:28:27;;;;;;;12.68;8.88;;;;;;;5.45;79.47;102532.44;4988041;28;20385;-57
2022/10/11 06:30:53;;;;;;;14.93;9.27;;;;;;;5.51;79.79;102537.63;4970542;28;20030;-57
2022/10/11 06:33:20;;;;;;;17.23;9.00;;;;;;;5.51;79.65;102532.34;4973050;28;20037;-57
2022/10/11 06:35:46;;;;;;;15.05;8.55;;;;;;;5.60;79.87;102533.97;4969555;28;20035;-57
2022/10/11 06:38:12;;;;;;;15.48;9.23;;;;;;;5.64;79.56;102535.66;4975277;28;20041;-57
2022/10/11 06:40:37;;;;;;;15.95;8.85;;;;;;;5.63;79.47;102542.72;4969506;28;20035;-56
2022/10/11 06:43:02;;;;;;;12.25;8.35;;;;;;;5.66;79.67;102536.53;4969134;28;20100;-57
2022/10/11 06:45:28;;;;;;;14.73;9.27;;;;;;;5.73;80.13;102542.56;4962852;28;20071;-57
2022/10/11 06:47:53;;;;;;;15.20;9.52;;;;;;;5.66;79.98;102532.13;4987863;28;20030;-57
2022/10/11 06:50:19;;;;;;;11.52;8.15;;;;;;;5.79;80.53;102550.41;4965657;28;20034;-57
2022/10/11 06:52:45;;;;;;;11.55;9.02;;;;;;;5.80;80.02;102538.97;4955211;28;20030;-56
2022/10/11 06:55:11;;;;;;;13.18;8.52;;;;;;;5.79;80.49;102531.91;4988064;28;20019;-56
2022/10/11 06:57:36;;;;;;;11.95;9.05;;;;;;;5.89;80.54;102552.88;4989724;28;20014;-56
2022/10/11 07:00:04;;;;;;;13.90;9.02;;;;;;;5.92;80.88;102549.31;5003328;28;20031;-57
2022/10/11 07:02:29;;;;;;;16.50;9.40;;;;;;;6.01;81.08;102548.34;4988338;28;20393;-57
2022/10/11 07:04:54;;;;;;;15.90;8.88;;;;;;;6.04;81.83;102556.19;4967999;28;20026;-56
2022/10/11 07:07:20;;;;;;;15.10;8.63;;;;;;;6.04;81.53;102554.44;4989805;28;20044;-56
2022/10/11 07:09:45;;;;;;;17.73;9.45;;;;;;;6.16;82.38;102560.41;4989594;28;20065;-58
2022/10/11 07:12:10;;;;;;;12.40;8.25;;;;;;;6.22;82.33;102563.81;4955100;28;20039;-57
2022/10/11 07:14:36;;;;;;;12.65;8.93;;;;;;;6.24;82.52;102566.44;4980835;28;20049;-57
2022/10/11 07:17:02;;;;;;;13.88;9.23;;;;;;;6.29;82.65;102562.78;4973873;28;20120;-57
2022/10/11 07:19:27;;;;;;;15.80;9.15;;;;;;;6.35;83.25;102573.28;4979360;28;20038;-56
2022/10/11 07:21:53;;;;;;;13.95;9.27;;;;;;;6.42;83.15;102559.97;4992429;28;20481;-58
2022/10/11 07:24:20;;;;;;;10.63;8.73;;;;;;;6.46;83.43;102575.72;4974509;28;20035;-57
2022/10/11 07:26:46;;;;;;;17.08;9.63;;;;;;;6.46;84.96;102575.72;4975004;28;20389;-57
2022/10/11 07:29:14;;;;;;;13.02;8.77;;;;;;;6.58;84.45;102572.84;4990706;28;20037;-57
2022/10/11 07:31:42;;;;;;;13.63;10.13;;;;;;;6.65;84.90;102581.56;4965523;28;20037;-58
2022/10/11 07:34:09;;;;;;;17.77;9.95;;;;;;;6.74;85.08;102580.50;4977575;28;20447;-57
2022/10/11 07:36:34;;;;;;;18.73;9.80;;;;;;;6.78;85.38;102579.53;4956341;28;20555;-57
2022/10/11 07:39:22;;;;;;;16.65;10.10;;;;;;;6.91;86.93;102580.16;4954937;28;20047;-57
2022/10/11 07:41:47;;;;;;;18.13;10.50;;;;;;;6.96;86.79;102580.94;4976963;28;20038;-58
2022/10/11 07:44:13;;;;;;;18.73;11.02;;;;;;;6.98;86.87;102584.44;4991712;28;20027;-58
2022/10/11 07:46:38;;;;;;;14.82;10.00;;;;;;;7.09;87.02;102577.16;4991823;28;20031;-58
2022/10/11 07:49:04;;;;;;;17.88;11.52;;;;;;;7.21;88.05;102583.97;4973257;28;20057;-57
2022/10/11 07:51:29;;;;;;;18.30;10.43;;;;;;;7.30;88.53;102577.63;4972945;28;20027;-57
2022/10/11 07:53:55;;;;;;;14.73;10.02;;;;;;;7.44;88.42;102588.75;4988881;28;20027;-57
2022/10/11 07:56:24;;;;;;;18.17;10.48;;;;;;;7.57;88.28;102581.44;4988176;28;20401;-57
2022/10/11 07:58:56;;;;;;;18.40;9.88;;;;;;;7.65;87.80;102595.38;4992863;28;20481;-57
2022/10/11 08:01:21;;;;;;;18.15;10.63;;;;;;;7.78;89.16;102598.59;4989983;28;20041;-57
2022/10/11 08:03:47;;;;;;;17.90;10.25;;;;;;;7.83;88.23;102600.22;4989410;28;20034;-57
2022/10/11 08:06:16;;;;;;;18.25;10.10;;;;;;;8.00;88.12;102593.66;4991050;28;20397;-57
2022/10/11 08:08:41;;;;;;;18.50;9.93;;;;;;;8.08;87.58;102597.00;4972065;28;20557;-58
2022/10/11 08:11:07;;;;;;;17.42;10.43;;;;;;;8.18;87.97;102596.75;4990793;28;20124;-58
2022/10/11 08:13:50;;;;;;;16.52;9.88;;;;;;;8.36;87.76;102600.69;4973463;28;20014;-57
2022/10/11 08:16:16;;;;;;;17.67;8.90;;;;;;;8.47;87.74;102591.63;4972999;28;20420;-57
2022/10/11 08:18:41;;;;;;;16.52;9.73;;;;;;;8.54;88.32;102606.47;4984921;28;20038;-57
2022/10/11 08:21:09;;;;;;;17.77;9.73;;;;;;;8.58;88.46;102595.72;4962781;28;20047;-57
2022/10/11 08:23:34;;;;;;;18.30;10.43;;;;;;;8.73;88.27;102604.19;4989815;28;20393;-57
2022/10/11 08:26:00;;;;;;;21.75;10.05;;;;;;;8.83;87.79;102605.69;4990743;28;20019;-57
2022/10/11 08:28:25;;;;;;;18.27;9.45;;;;;;;8.85;88.45;102598.53;4990881;28;20029;-57
2022/10/11 08:30:53;;;;;;;17.60;9.23;;;;;;;8.90;88.57;102604.59;4990592;28;20099;-57
2022/10/11 08:33:20;;;;;;;19.92;9.00;;;;;;;9.00;87.46;102607.84;4990420;28;20019;-57
2022/10/11 08:35:51;;;;;;;16.83;9.65;;;;;;;9.08;89.23;102600.56;4988811;28;20517;-57
2022/10/11 08:38:19;;;;;;;18.38;8.48;;;;;;;9.09;88.06;102597.88;4990751;28;20068;-56
2022/10/11 08:40:54;;;;;;;19.95;8.50;;;;;;;9.21;87.91;102607.25;4989266;28;20037;-56
2022/10/11 08:43:47;;;;;;;13.70;8.23;;;;;;;9.30;88.34;102611.44;4956931;28;20109;-57
2022/10/11 08:46:14;;;;;;;17.48;8.77;;;;;;;9.38;89.50;102597.91;4964932;28;20485;-57
2022/10/11 08:48:50;;;;;;;17.90;8.10;;;;;;;9.44;89.25;102611.91;4989887;28;20027;-56
2022/10/11 08:51:34;;;;;;;18.42;8.00;;;;;;;9.54;87.67;102609.84;4956961;28;20026;-57
2022/10/11 08:54:09;;;;;;;19.17;8.35;;;;;;;9.66;88.63;102614.75;4989376;28;20085;-57
2022/10/11 08:56:37;;;;;;;13.18;7.63;;;;;;;9.88;88.28;102614.09;4972325;28;20034;-57
2022/10/11 08:59:26;;;;;;;15.95;7.55;;;;;;;10.07;88.09;102611.72;4989965;28;20030;-57
2022/10/11 09:02:22;;;;;;;20.15;6.28;;;;;;;10.32;85.98;102620.63;4968651;28;20045;-57
2022/10/11 09:04:51;;;;;;;15.65;6.18;;;;;;;10.61;84.67;102622.31;4990433;28;20043;-57
2022/10/11 09:07:36;;;;;;;13.57;5.80;;;;;;;10.88;81.92;102627.59;4987212;28;20404;-57
2022/10/11 09:10:28;;;;;;;15.57;5.80;;;;;;;11.06;82.88;102623.38;4977059;28;20061;-58
2022/10/11 09:13:05;;;;;;;15.02;5.53;;;;;;;11.29;80.68;102623.41;4973402;28;20456;-57
2022/10/11 09:15:45;;;;;;;15.93;5.82;;;;;;;11.43;80.47;102624.69;4988842;28;20034;-58
2022/10/11 09:18:36;;;;;;;17.50;5.50;;;;;;;11.57;80.96;102625.91;4972143;28;20079;-57
2022/10/11 09:21:19;;;;;;;14.23;5.25;;;;;;;11.83;79.34;102624.88;4988379;28;20091;-57
2022/10/11 09:24:00;;;;;;;14.32;4.55;;;;;;;12.02;76.92;102633.03;4986917;28;20030;-58
2022/10/11 09:26:46;;;;;;;17.30;4.60;;;;;;;12.00;77.58;102629.59;4982053;28;20026;-57
2022/10/11 09:29:22;;;;;;;13.88;4.35;;;;;;;11.97;77.00;102635.03;4988440;28;20034;-58
2022/10/11 09:31:53;;;;;;;13.05;4.40;;;;;;;12.03;74.13;102632.13;4957818;28;20026;-57
2022/10/11 09:34:23;;;;;;;8.75;3.67;;;;;;;12.14;72.52;102625.47;4988469;28;20048;-57
2022/10/11 09:37:16;;;;;;;12.18;4.10;;;;;;;12.34;73.52;102633.50;4990056;28;20397;-57
2022/10/11 09:39:52;;;;;;;13.95;4.13;;;;;;;12.39;73.59;102628.00;4991399;28;20552;-58
2022/10/11 09:42:17;;;;;;;12.63;4.68;;;;;;;12.36;72.04;102628.13;4985378;28;20102;-58
2022/10/11 09:44:48;;;;;;;16.65;5.25;;;;;;;12.44;72.89;102620.66;4969351;28;20442;-57
2022/10/11 09:47:21;;;;;;;11.55;4.13;;;;;;;12.63;70.83;102628.75;4987770;28;20308;-56
2022/10/11 09:49:51;;;;;;;12.88;4.13;;;;;;;12.80;68.16;102633.38;4983651;28;20046;-57
2022/10/11 09:52:23;;;;;;;12.07;4.28;;;;;;;12.87;69.47;102619.66;4986191;28;20069;-57
2022/10/11 09:54:54;;;;;;;10.68;3.10;;;;;;;12.98;72.05;102623.66;4984995;28;20465;-57
2022/10/11 09:57:24;;;;;;;11.25;3.28;;;;;;;13.27;69.00;102625.94;4987120;28;20022;-57
2022/10/11 10:00:19;;;;;;;11.48;3.53;;;;;;;13.36;70.68;102630.84;4989284;28;20045;-57
2022/10/11 10:02:50;;;;;;;12.23;3.42;;;;;;;13.56;68.45;102631.69;4989018;28;20026;-57
2022/10/11 10:05:15;;;;;;;12.27;3.30;;;;;;;13.77;65.63;102625.34;4985435;28;20065;-56
2022/10/11 10:08:05;;;;;;;11.27;3.55;;;;;;;14.06;65.87;102631.97;4985287;28;20115;-58
2022/10/11 10:10:39;;;;;;;11.50;3.60;;;;;;;14.27;62.13;102630.03;4962385;28;20035;-57
2022/10/11 10:13:19;;;;;;;11.48;3.30;;;;;;;14.42;63.22;102630.22;4989812;28;20101;-57
2022/10/11 10:15:48;;;;;;;9.20;3.40;;;;;;;14.51;59.70;102635.97;4989252;28;20070;-57
2022/10/11 10:18:47;;;;;;;9.40;3.20;;;;;;;14.86;60.36;102627.94;4988559;28;20026;-57
2022/10/11 10:21:13;;;;;;;;;;;;;;;15.22;63.67;102625.09;4995780;28;20042;-56
2022/10/11 10:23:40;;;;;;;10.25;3.05;;;;;;;15.39;56.26;102631.38;4969957;28;20459;-57
2022/10/11 10:26:15;;;;;;;10.13;3.33;;;;;;;15.72;54.53;102631.34;4988842;28;20022;-56
2022/10/11 10:29:07;;;;;;;11.55;3.30;;;;;;;16.02;56.15;102625.19;4971987;28;20473;-57
2022/10/11 10:31:36;;;;;;;13.88;2.95;;;;;;;16.26;52.30;102629.09;4995607;28;20038;-57
2022/10/11 10:34:11;;;;;;;9.70;2.42;;;;;;;16.61;52.16;102623.47;4988941;28;20023;-57
2022/10/11 10:36:42;;;;;;;14.38;2.97;;;;;;;16.92;50.61;102622.50;4989278;28;20030;-57
2022/10/11 10:39:19;;;;;;;9.88;2.60;;;;;;;17.37;49.78;102622.41;4989493;28;20022;-57
2022/10/11 10:41:47;;;;;;;7.70;2.47;;;;;;;17.63;47.50;102634.22;4986591;28;20117;-56
2022/10/11 10:44:14;;;;;;;11.77;2.58;;;;;;;18.07;47.10;102628.63;4988823;28;20027;-57
2022/10/11 10:46:51;;;;;;;9.43;2.72;;;;;;;18.29;49.03;102627.19;4970977;28;20033;-57
2022/10/11 10:49:29;;;;;;;12.27;2.75;;;;;;;18.81;44.64;102624.53;4988891;28;20027;-57
2022/10/11 10:52:11;;;;;;;10.23;2.42;;;;;;;18.92;45.81;102621.09;4988784;28;20026;-57
2022/10/11 10:54:42;;;;;;;10.40;2.53;;;;;;;19.28;45.36;102627.53;4982561;28;20027;-56
2022/10/11 10:57:24;;;;;;;8.52;2.38;;;;;;;19.34;44.48;102610.06;4964036;28;20034;-57
2022/10/11 11:00:18;;;;;;;8.88;2.50;;;;;;;20.29;44.15;102625.50;4985775;28;20376;-57
2022/10/11 11:03:05;;;;;;;8.90;2.75;;;;;;;20.32;42.25;102613.59;4989160;28;20526;-57
2022/10/11 11:05:58;;;;;;;9.30;2.63;;;;;;;20.57;43.74;102618.88;4988282;28;20455;-57
2022/10/11 11:08:51;;;;;;;10.02;2.65;;;;;;;20.72;42.48;102616.81;4989467;28;20050;-57
2022/10/11 11:11:16;;;;;;;9.90;2.28;;;;;;;21.24;37.25;102614.56;4988119;28;20389;-57
2022/10/11 11:13:46;;;;;;;9.88;2.53;;;;;;;21.06;38.82;102614.16;4984448;28;20033;-57
2022/10/11 11:16:27;;;;;;;9.35;2.13;;;;;;;21.59;39.47;102614.44;4988898;28;20438;-57
2022/10/11 11:19:01;;;;;;;9.10;2.38;;;;;;;21.81;37.44;102616.22;4985124;28;20030;-58
2022/10/11 11:21:41;;;;;;;8.80;2.45;;;;;;;22.32;37.83;102609.28;4969128;28;20059;-57
2022/10/11 11:24:34;;;;;;;9.35;2.50;;;;;;;22.63;36.20;102600.25;4969004;28;20104;-57
2022/10/11 11:27:36;;;;;;;11.13;2.53;;;;;;;22.89;39.26;102597.13;4969493;28;20030;-57
2022/10/11 11:30:02;;;;;;;6.63;2.15;;;;;;;23.46;33.82;102602.94;4952162;28;20033;-58
2022/10/11 11:32:36;;;;;;;12.23;2.67;;;;;;;23.69;33.36;102599.00;4969203;28;20030;-57
2022/10/11 11:35:13;;;;;;;8.80;2.38;;;;;;;24.02;32.73;102602.38;4968800;28;20098;-57
2022/10/11 11:37:42;;;;;;;8.93;2.45;;;;;;;23.96;31.57;102600.22;4952078;28;20055;-58
2022/10/11 11:40:20;;;;;;;10.73;2.33;;;;;;;24.46;33.12;102592.78;4969453;28;20027;-58
2022/10/11 11:42:50;;;;;;;8.73;2.50;;;;;;;24.59;30.42;102594.34;4969270;28;20054;-58